createdAt,value
2023-05-07T00:02:04.921Z,15.10
2023-05-07T00:04:37.798Z,15.00
2023-05-07T00:07:05.231Z,15.00
2023-05-07T00:09:32.228Z,15.00
2023-05-07T00:11:59.468Z,14.90
2023-05-07T00:14:26.796Z,14.90
2023-05-07T00:16:53.860Z,14.80
2023-05-07T00:19:20.998Z,14.70
2023-05-07T00:21:48.022Z,14.80
2023-05-07T00:24:14.990Z,14.60
2023-05-07T00:26:41.987Z,14.60
2023-05-07T00:29:08.961Z,14.50
2023-05-07T00:31:36.472Z,14.50
2023-05-07T00:34:03.513Z,14.50
2023-05-07T00:36:31.190Z,14.50
2023-05-07T00:39:00.156Z,14.50
2023-05-07T00:41:27.490Z,14.50
2023-05-07T00:43:54.404Z,14.40
2023-05-07T00:46:24.799Z,14.40
2023-05-07T00:48:52.476Z,14.40
2023-05-07T00:51:19.785Z,14.50
2023-05-07T00:53:47.564Z,14.50
2023-05-07T00:56:14.635Z,14.40
2023-05-07T00:58:41.859Z,14.40
2023-05-07T01:01:08.992Z,14.40
2023-05-07T01:03:36.303Z,14.20
2023-05-07T01:06:04.782Z,14.20
2023-05-07T01:08:33.524Z,14.20
2023-05-07T01:11:01.373Z,14.20
2023-05-07T01:13:29.339Z,14.20
2023-05-07T01:15:56.525Z,14.10
2023-05-07T01:18:23.696Z,14.10
2023-05-07T01:20:50.688Z,14.00
2023-05-07T01:23:19.017Z,14.00
2023-05-07T01:25:55.782Z,13.90
2023-05-07T01:28:22.983Z,13.90
2023-05-07T01:30:57.443Z,13.80
2023-05-07T01:33:24.919Z,13.80
2023-05-07T01:35:54.407Z,13.80
2023-05-07T01:38:23.730Z,13.70
2023-05-07T01:40:51.384Z,13.70
2023-05-07T01:43:19.003Z,13.60
2023-05-07T01:45:46.984Z,13.60
2023-05-07T01:48:16.476Z,13.60
2023-05-07T01:50:45.442Z,13.60
2023-05-07T01:53:12.370Z,13.60
2023-05-07T01:55:39.436Z,13.60
2023-05-07T01:58:06.444Z,13.50
2023-05-07T02:00:33.783Z,13.40
2023-05-07T02:03:00.988Z,13.40
2023-05-07T02:05:27.976Z,13.40
2023-05-07T02:07:54.959Z,13.30
2023-05-07T02:10:22.209Z,13.40
2023-05-07T02:12:49.461Z,13.20
2023-05-07T02:15:16.483Z,13.10
2023-05-07T02:18:02.637Z,13.10
2023-05-07T02:20:29.763Z,13.00
2023-05-07T02:22:56.762Z,13.20
2023-05-07T02:25:23.942Z,13.30
2023-05-07T02:27:50.926Z,13.20
2023-05-07T02:30:18.248Z,13.20
2023-05-07T02:32:45.661Z,13.10
2023-05-07T02:35:12.816Z,13.00
2023-05-07T02:37:39.797Z,13.00
2023-05-07T02:40:07.517Z,13.00
2023-05-07T02:42:34.593Z,12.90
2023-05-07T02:45:01.618Z,12.90
2023-05-07T02:47:29.332Z,12.80
2023-05-07T02:49:56.576Z,12.80
2023-05-07T02:52:23.698Z,12.80
2023-05-07T02:54:50.975Z,12.80
2023-05-07T02:57:18.006Z,12.70
2023-05-07T02:59:45.002Z,12.70
2023-05-07T03:02:12.113Z,12.60
2023-05-07T03:04:41.526Z,12.60
2023-05-07T03:07:08.656Z,12.50
2023-05-07T03:09:35.905Z,12.50
2023-05-07T03:12:03.037Z,12.50
2023-05-07T03:14:30.111Z,12.50
2023-05-07T03:16:57.433Z,12.40
2023-05-07T03:19:24.544Z,12.30
2023-05-07T03:21:52.027Z,12.20
2023-05-07T03:24:19.068Z,12.10
2023-05-07T03:26:46.302Z,12.10
2023-05-07T03:29:13.455Z,12.00
2023-05-07T03:31:40.767Z,12.00
2023-05-07T03:34:08.443Z,12.00
2023-05-07T03:36:35.643Z,12.00
2023-05-07T03:39:02.869Z,11.90
2023-05-07T03:41:30.841Z,11.90
2023-05-07T03:43:58.500Z,11.80
2023-05-07T03:46:27.353Z,11.80
2023-05-07T03:48:54.564Z,11.90
2023-05-07T03:51:21.666Z,11.80
2023-05-07T03:53:48.733Z,11.80
2023-05-07T03:56:17.727Z,11.70
2023-05-07T03:58:45.569Z,11.70
2023-05-07T04:01:13.167Z,11.70
2023-05-07T04:03:40.605Z,11.70
2023-05-07T04:06:07.760Z,11.70
2023-05-07T04:08:34.864Z,11.60
2023-05-07T04:11:01.950Z,11.70
2023-05-07T04:13:29.095Z,11.60
2023-05-07T04:15:56.926Z,11.60
2023-05-07T04:18:24.049Z,11.60
2023-05-07T04:20:51.115Z,11.60
2023-05-07T04:23:18.159Z,11.60
2023-05-07T04:25:45.170Z,11.60
2023-05-07T04:28:12.682Z,11.60
2023-05-07T04:30:40.048Z,11.70
2023-05-07T04:33:08.048Z,11.80
2023-05-07T04:35:36.122Z,11.70
2023-05-07T04:38:03.437Z,11.70
2023-05-07T04:40:31.145Z,11.80
2023-05-07T04:42:58.340Z,11.80
2023-05-07T04:45:25.412Z,11.80
2023-05-07T04:47:52.556Z,11.80
2023-05-07T04:50:20.926Z,11.90
2023-05-07T04:52:47.996Z,11.90
2023-05-07T04:55:15.880Z,12.00
2023-05-07T04:57:43.007Z,12.20
2023-05-07T05:00:10.561Z,12.30
2023-05-07T05:02:38.104Z,12.30
2023-05-07T05:05:06.036Z,12.40
2023-05-07T05:07:33.086Z,12.50
2023-05-07T05:10:00.200Z,12.60
2023-05-07T05:12:27.746Z,12.70
2023-05-07T05:14:54.930Z,12.80
2023-05-07T05:17:22.529Z,12.90
2023-05-07T05:19:49.702Z,13.10
2023-05-07T05:22:16.794Z,13.10
2023-05-07T05:24:43.995Z,13.20
2023-05-07T05:27:11.106Z,13.40
2023-05-07T05:29:38.147Z,13.60
2023-05-07T05:32:05.548Z,13.70
2023-05-07T05:34:34.189Z,13.90
2023-05-07T05:37:01.597Z,14.00
2023-05-07T05:39:28.776Z,14.10
2023-05-07T05:41:55.881Z,14.20
2023-05-07T05:44:23.032Z,14.20
2023-05-07T05:46:51.048Z,14.30
2023-05-07T05:49:18.177Z,14.40
2023-05-07T05:51:45.119Z,14.50
2023-05-07T05:54:12.185Z,14.40
2023-05-07T05:56:39.168Z,14.50
2023-05-07T05:59:06.491Z,14.50
2023-05-07T06:01:34.014Z,14.60
2023-05-07T06:04:01.177Z,14.60
2023-05-07T06:06:29.176Z,14.70
2023-05-07T06:08:56.128Z,14.80
2023-05-07T06:11:23.214Z,14.90
2023-05-07T06:13:51.495Z,14.90
2023-05-07T06:16:18.516Z,15.00
2023-05-07T06:18:47.609Z,15.10
2023-05-07T06:21:15.177Z,15.10
2023-05-07T06:23:42.230Z,15.20
2023-05-07T06:26:09.298Z,15.30
2023-05-07T06:28:38.916Z,15.40
2023-05-07T06:31:15.795Z,15.50
2023-05-07T06:33:43.713Z,15.50
2023-05-07T06:36:11.019Z,15.60
2023-05-07T06:38:37.943Z,15.70
2023-05-07T06:41:06.503Z,15.70
2023-05-07T06:43:33.868Z,15.80
2023-05-07T06:46:00.842Z,15.90
2023-05-07T06:48:27.848Z,16.00
2023-05-07T06:50:56.757Z,16.10
2023-05-07T06:53:23.694Z,16.10
2023-05-07T06:55:50.994Z,16.30
2023-05-07T06:58:17.925Z,16.40
2023-05-07T07:00:45.553Z,16.50
2023-05-07T07:03:12.757Z,16.50
2023-05-07T07:05:41.680Z,16.60
2023-05-07T07:08:08.758Z,16.70
2023-05-07T07:10:35.905Z,16.60
2023-05-07T07:13:03.073Z,16.70
2023-05-07T07:15:30.363Z,16.90
2023-05-07T07:17:57.684Z,17.00
2023-05-07T07:20:24.734Z,17.20
2023-05-07T07:22:51.769Z,17.50
2023-05-07T07:25:18.801Z,17.80
2023-05-07T07:27:46.055Z,18.00
2023-05-07T07:30:13.478Z,18.20
2023-05-07T07:32:40.639Z,18.40
2023-05-07T07:35:08.506Z,18.50
2023-05-07T07:37:35.700Z,18.60
2023-05-07T07:40:02.652Z,18.90
2023-05-07T07:42:30.317Z,19.20
2023-05-07T07:44:58.220Z,19.40
2023-05-07T07:47:25.369Z,19.60
2023-05-07T07:49:52.351Z,19.70
2023-05-07T07:52:19.897Z,19.70
2023-05-07T07:54:47.168Z,19.80
2023-05-07T07:57:14.193Z,19.90
2023-05-07T07:59:41.297Z,20.00
2023-05-07T08:02:08.457Z,20.00
2023-05-07T08:04:36.728Z,20.00
2023-05-07T08:07:04.335Z,20.10
2023-05-07T08:09:31.677Z,20.10
2023-05-07T08:11:58.966Z,20.20
2023-05-07T08:14:26.258Z,20.30
2023-05-07T08:16:53.714Z,20.30
2023-05-07T08:19:21.372Z,20.40
2023-05-07T08:21:49.148Z,20.40
2023-05-07T08:24:16.891Z,20.50
2023-05-07T08:26:44.691Z,20.60
2023-05-07T08:29:11.877Z,20.80
2023-05-07T08:31:40.605Z,20.90
2023-05-07T08:34:09.554Z,21.00
2023-05-07T08:36:37.097Z,21.20
2023-05-07T08:39:04.303Z,21.40
2023-05-07T08:41:32.276Z,21.30
2023-05-07T08:44:01.180Z,21.30
2023-05-07T08:46:32.219Z,21.40
2023-05-07T08:48:59.739Z,21.60
2023-05-07T08:51:26.773Z,21.90
2023-05-07T08:53:53.808Z,21.90
2023-05-07T08:56:22.429Z,22.10
2023-05-07T08:58:50.025Z,22.30
2023-05-07T09:01:18.284Z,22.70
2023-05-07T09:03:46.732Z,22.90
2023-05-07T09:06:13.855Z,23.10
2023-05-07T09:08:40.916Z,23.30
2023-05-07T09:11:07.871Z,23.80
2023-05-07T09:13:35.020Z,23.80
2023-05-07T09:16:12.587Z,23.60
2023-05-07T09:18:46.229Z,23.50
2023-05-07T09:21:16.823Z,23.70
2023-05-07T09:23:43.840Z,23.80
2023-05-07T09:26:12.936Z,23.90
2023-05-07T09:28:43.703Z,24.20
2023-05-07T09:31:12.066Z,24.40
2023-05-07T09:33:40.277Z,24.40
2023-05-07T09:36:09.806Z,24.20
2023-05-07T09:38:38.238Z,24.20
2023-05-07T09:41:07.036Z,24.30
2023-05-07T09:43:39.108Z,24.30
2023-05-07T09:46:14.103Z,24.60
2023-05-07T09:48:44.382Z,24.90
2023-05-07T09:51:46.729Z,24.80
2023-05-07T09:54:13.808Z,25.00
2023-05-07T09:56:42.957Z,25.30
2023-05-07T09:59:14.007Z,25.50
2023-05-07T10:01:43.323Z,25.90
2023-05-07T10:04:15.245Z,25.80
2023-05-07T10:06:43.632Z,25.90
2023-05-07T10:09:12.130Z,25.90
2023-05-07T10:11:39.257Z,26.10
2023-05-07T10:14:06.970Z,26.10
2023-05-07T10:16:37.345Z,26.10
2023-05-07T10:19:11.015Z,26.20
2023-05-07T10:21:39.992Z,26.40
2023-05-07T10:24:11.495Z,26.50
2023-05-07T10:26:39.180Z,26.70
2023-05-07T10:29:13.514Z,26.80
2023-05-07T10:32:01.329Z,26.50
2023-05-07T10:34:35.549Z,26.20
2023-05-07T10:37:03.936Z,26.40
2023-05-07T10:39:31.523Z,26.60
2023-05-07T10:42:08.209Z,26.00
2023-05-07T10:44:36.304Z,26.30
2023-05-07T10:47:14.017Z,26.70
2023-05-07T10:49:46.647Z,27.10
2023-05-07T10:52:25.662Z,27.00
2023-05-07T10:55:26.179Z,26.90
2023-05-07T10:57:53.522Z,26.90
2023-05-07T11:00:38.865Z,27.30
2023-05-07T11:03:08.286Z,27.40
2023-05-07T11:05:38.230Z,27.70
2023-05-07T11:08:06.894Z,27.50
2023-05-07T11:10:53.160Z,27.30
2023-05-07T11:13:40.982Z,27.10
2023-05-07T11:16:21.866Z,27.10
2023-05-07T11:18:53.937Z,27.40
2023-05-07T11:21:33.840Z,27.50
2023-05-07T11:24:02.224Z,27.50
2023-05-07T11:26:31.249Z,27.30
2023-05-07T11:28:59.891Z,27.20
2023-05-07T11:31:29.812Z,27.00
2023-05-07T11:33:57.380Z,26.60
2023-05-07T11:36:24.947Z,26.70
2023-05-07T11:38:52.074Z,27.00
2023-05-07T11:41:20.785Z,27.10
2023-05-07T11:43:58.962Z,26.90
2023-05-07T11:46:26.345Z,26.90
2023-05-07T11:48:53.509Z,26.80
2023-05-07T11:51:22.552Z,26.70
2023-05-07T11:53:52.113Z,26.60
2023-05-07T11:56:19.975Z,26.40
2023-05-07T11:58:48.455Z,26.20
2023-05-07T12:01:17.590Z,25.90
2023-05-07T12:03:47.022Z,25.70
2023-05-07T12:06:17.063Z,25.40
2023-05-07T12:08:47.033Z,24.90
2023-05-07T12:11:18.532Z,24.40
2023-05-07T12:13:46.195Z,24.20
2023-05-07T12:16:13.830Z,24.00
2023-05-07T12:18:41.714Z,24.00
2023-05-07T12:21:09.229Z,23.60
2023-05-07T12:23:37.982Z,23.40
2023-05-07T12:26:07.246Z,23.20
2023-05-07T12:28:39.678Z,23.10
2023-05-07T12:31:07.519Z,23.00
2023-05-07T12:33:36.469Z,22.90
2023-05-07T12:36:09.483Z,22.90
2023-05-07T12:38:37.920Z,23.00
2023-05-07T12:41:05.988Z,23.00
2023-05-07T12:43:33.027Z,23.00
2023-05-07T12:46:08.438Z,22.90
2023-05-07T12:48:38.422Z,22.70
2023-05-07T12:51:07.223Z,22.60
2023-05-07T12:53:34.271Z,22.30
2023-05-07T12:56:01.341Z,21.80
2023-05-07T12:58:30.582Z,21.50
2023-05-07T13:01:00.966Z,21.40
2023-05-07T13:03:33.314Z,21.30
2023-05-07T13:06:06.085Z,20.90
2023-05-07T13:08:38.644Z,20.50
2023-05-07T13:11:06.134Z,20.20
2023-05-07T13:13:34.761Z,20.00
2023-05-07T13:16:02.518Z,19.70
2023-05-07T13:18:33.049Z,19.30
2023-05-07T13:21:01.312Z,19.10
2023-05-07T13:23:29.183Z,18.80
2023-05-07T13:25:57.222Z,18.50
2023-05-07T13:28:25.348Z,18.30
2023-05-07T13:30:52.965Z,18.30
2023-05-07T13:33:20.070Z,18.30
2023-05-07T13:35:47.431Z,18.20
2023-05-07T13:38:16.840Z,18.10
2023-05-07T13:40:43.770Z,17.80
2023-05-07T13:43:11.732Z,17.60
2023-05-07T13:45:38.963Z,17.50
2023-05-07T13:48:06.228Z,17.40
2023-05-07T13:50:33.201Z,17.40
2023-05-07T13:53:00.182Z,17.30
2023-05-07T13:55:30.387Z,17.10
2023-05-07T13:58:01.296Z,17.00
2023-05-07T14:00:29.470Z,17.00
2023-05-07T14:02:57.709Z,16.90
2023-05-07T14:05:25.605Z,16.90
2023-05-07T14:07:52.929Z,16.90
2023-05-07T14:10:20.718Z,16.80
2023-05-07T14:12:48.308Z,16.80
2023-05-07T14:15:17.128Z,16.70
2023-05-07T14:17:45.065Z,16.60
2023-05-07T14:20:13.559Z,16.60
2023-05-07T14:22:40.900Z,16.60
2023-05-07T14:25:10.772Z,16.50
2023-05-07T14:27:37.881Z,16.50
2023-05-07T14:30:05.236Z,16.40
2023-05-07T14:32:32.299Z,16.30
2023-05-07T14:34:59.363Z,16.40
2023-05-07T14:37:26.391Z,16.30
2023-05-07T14:39:53.348Z,16.40
2023-05-07T14:42:20.397Z,16.40
2023-05-07T14:44:48.805Z,16.40
2023-05-07T14:47:17.606Z,16.50
2023-05-07T14:49:46.801Z,16.60
2023-05-07T14:52:13.852Z,16.70
2023-05-07T14:54:40.798Z,16.80
2023-05-07T14:57:10.722Z,16.90
2023-05-07T14:59:39.310Z,17.00
2023-05-07T15:02:09.030Z,17.10
2023-05-07T15:04:36.504Z,17.20
2023-05-07T15:07:03.629Z,17.30
2023-05-07T15:09:30.758Z,17.40
2023-05-07T15:11:57.649Z,17.50
2023-05-07T15:14:24.648Z,17.40
2023-05-07T15:16:51.631Z,17.40
2023-05-07T15:19:18.706Z,17.30
2023-05-07T15:21:45.819Z,17.30
2023-05-07T15:24:12.702Z,17.20
2023-05-07T15:26:39.559Z,17.20
2023-05-07T15:29:11.236Z,17.30
2023-05-07T15:31:41.315Z,17.40
2023-05-07T15:34:08.470Z,17.60
2023-05-07T15:36:36.143Z,17.60
2023-05-07T15:39:05.354Z,17.60
2023-05-07T15:41:32.746Z,17.70
2023-05-07T15:44:00.139Z,17.70
2023-05-07T15:46:27.368Z,17.90
2023-05-07T15:48:54.895Z,18.00
2023-05-07T15:51:22.219Z,18.00
2023-05-07T15:53:49.748Z,18.00
2023-05-07T15:56:16.685Z,18.20
2023-05-07T15:58:43.654Z,18.30
2023-05-07T16:01:11.002Z,18.40
2023-05-07T16:03:39.179Z,18.50
2023-05-07T16:06:06.615Z,18.60
2023-05-07T16:08:34.116Z,18.50
2023-05-07T16:11:01.231Z,18.40
2023-05-07T16:13:28.399Z,18.50
2023-05-07T16:15:59.437Z,18.50
2023-05-07T16:18:26.851Z,18.50
2023-05-07T16:20:58.162Z,18.40
2023-05-07T16:23:25.100Z,18.50
2023-05-07T16:25:52.187Z,18.30
2023-05-07T16:28:19.153Z,18.30
2023-05-07T16:30:46.171Z,18.30
2023-05-07T16:33:13.352Z,18.30
2023-05-07T16:35:40.362Z,18.20
2023-05-07T16:38:10.521Z,18.20
2023-05-07T16:40:40.429Z,18.30
2023-05-07T16:43:07.712Z,18.20
2023-05-07T16:45:34.719Z,18.20
2023-05-07T16:48:03.311Z,18.10
2023-05-07T16:50:30.731Z,18.10
2023-05-07T16:52:57.755Z,18.10
2023-05-07T16:55:24.894Z,18.00
2023-05-07T16:57:51.946Z,18.00
2023-05-07T17:00:19.319Z,18.10
2023-05-07T17:02:47.090Z,18.10
2023-05-07T17:05:14.787Z,18.10
2023-05-07T17:07:42.083Z,18.00
2023-05-07T17:10:09.586Z,17.90
2023-05-07T17:12:38.055Z,17.90
2023-05-07T17:15:06.230Z,18.00
2023-05-07T17:17:33.360Z,17.90
2023-05-07T17:20:00.430Z,17.90
2023-05-07T17:22:27.703Z,17.90
2023-05-07T17:24:54.674Z,17.90
2023-05-07T17:27:21.890Z,17.80
2023-05-07T17:29:49.061Z,17.80
2023-05-07T17:32:16.362Z,17.80
2023-05-07T17:34:43.440Z,17.80
2023-05-07T17:37:10.389Z,17.80
2023-05-07T17:39:37.792Z,17.70
2023-05-07T17:42:05.168Z,17.70
2023-05-07T17:44:33.830Z,17.80
2023-05-07T17:47:00.985Z,17.80
2023-05-07T17:49:27.936Z,17.70
2023-05-07T17:51:55.767Z,17.60
2023-05-07T17:54:26.111Z,17.40
2023-05-07T17:56:53.615Z,17.30
2023-05-07T17:59:20.683Z,17.30
2023-05-07T18:01:47.810Z,17.30
2023-05-07T18:04:14.880Z,17.30
2023-05-07T18:06:42.292Z,17.30
2023-05-07T18:09:09.403Z,17.20
2023-05-07T18:11:37.375Z,17.20
2023-05-07T18:14:04.392Z,17.20
2023-05-07T18:16:31.613Z,17.20
2023-05-07T18:18:58.652Z,17.10
2023-05-07T18:21:25.828Z,17.10
2023-05-07T18:23:52.725Z,17.00
2023-05-07T18:26:19.715Z,17.10
2023-05-07T18:28:46.783Z,17.00
2023-05-07T18:31:13.863Z,16.90
2023-05-07T18:33:41.096Z,16.90
2023-05-07T18:36:08.092Z,16.80
2023-05-07T18:38:35.084Z,16.90
2023-05-07T18:41:03.871Z,16.90
2023-05-07T18:43:30.907Z,16.70
2023-05-07T18:45:58.328Z,16.80
2023-05-07T18:48:25.380Z,16.70
2023-05-07T18:50:52.685Z,16.70
2023-05-07T18:53:19.756Z,16.70
2023-05-07T18:55:53.032Z,16.70
2023-05-07T18:58:20.322Z,16.60
2023-05-07T19:00:48.393Z,16.50
2023-05-07T19:03:16.279Z,16.40
2023-05-07T19:05:43.970Z,16.40
2023-05-07T19:08:11.645Z,16.40
2023-05-07T19:10:38.867Z,16.40
2023-05-07T19:13:05.965Z,16.40
2023-05-07T19:15:33.092Z,16.40
2023-05-07T19:18:00.278Z,16.50
2023-05-07T19:20:27.502Z,16.50
2023-05-07T19:22:54.568Z,16.40
2023-05-07T19:25:21.814Z,16.40
2023-05-07T19:27:48.949Z,16.50
2023-05-07T19:30:17.198Z,16.50
2023-05-07T19:32:44.156Z,16.50
2023-05-07T19:35:11.685Z,16.50
2023-05-07T19:37:39.235Z,16.40
2023-05-07T19:40:07.109Z,16.40
2023-05-07T19:42:34.259Z,16.40
2023-05-07T19:45:01.306Z,16.60
2023-05-07T19:47:28.197Z,16.60
2023-05-07T19:49:55.218Z,16.50
2023-05-07T19:52:22.224Z,16.40
2023-05-07T19:54:49.068Z,16.30
2023-05-07T19:57:17.620Z,16.20
2023-05-07T19:59:46.685Z,16.20
2023-05-07T20:02:13.728Z,16.20
2023-05-07T20:04:40.677Z,16.10
2023-05-07T20:07:07.820Z,16.10
2023-05-07T20:09:34.934Z,16.10
2023-05-07T20:12:02.096Z,16.20
2023-05-07T20:14:29.293Z,16.10
2023-05-07T20:16:56.320Z,16.10
2023-05-07T20:19:23.231Z,16.10
2023-05-07T20:21:50.337Z,16.10
2023-05-07T20:24:19.278Z,16.10
2023-05-07T20:26:46.915Z,16.20
2023-05-07T20:29:13.849Z,16.10
2023-05-07T20:31:40.850Z,16.10
2023-05-07T20:34:08.130Z,16.00
2023-05-07T20:36:36.094Z,15.90
2023-05-07T20:39:04.245Z,15.90
2023-05-07T20:41:31.470Z,15.80
2023-05-07T20:43:58.567Z,15.90
2023-05-07T20:46:27.522Z,16.10
2023-05-07T20:48:54.858Z,16.10
2023-05-07T20:51:21.821Z,16.10
2023-05-07T20:53:48.724Z,16.00
2023-05-07T20:56:16.096Z,15.90
2023-05-07T20:58:43.089Z,15.90
2023-05-07T21:01:10.238Z,15.90
2023-05-07T21:03:37.340Z,15.80
2023-05-07T21:06:04.645Z,15.80
2023-05-07T21:08:31.808Z,15.90
2023-05-07T21:10:59.355Z,15.90
2023-05-07T21:13:26.666Z,15.90
2023-05-07T21:15:53.751Z,16.00
2023-05-07T21:18:20.805Z,15.90
2023-05-07T21:20:47.957Z,15.80
2023-05-07T21:23:14.904Z,15.80
2023-05-07T21:25:41.955Z,15.70
2023-05-07T21:28:09.273Z,15.80
2023-05-07T21:30:36.949Z,15.80
2023-05-07T21:33:06.250Z,15.90
2023-05-07T21:35:36.133Z,15.90
2023-05-07T21:38:03.263Z,15.90
2023-05-07T21:40:32.127Z,15.90
2023-05-07T21:43:02.096Z,15.80
2023-05-07T21:45:29.330Z,15.80
2023-05-07T21:47:56.530Z,15.80
2023-05-07T21:50:24.006Z,15.80
2023-05-07T21:52:51.012Z,15.90
2023-05-07T21:55:18.342Z,16.00
2023-05-07T21:57:53.675Z,16.00
2023-05-07T22:00:29.553Z,16.00
2023-05-07T22:02:56.726Z,15.80
2023-05-07T22:05:23.934Z,15.80
2023-05-07T22:07:50.889Z,15.80
2023-05-07T22:10:22.560Z,15.80
2023-05-07T22:12:49.801Z,15.90
2023-05-07T22:15:16.807Z,15.90
2023-05-07T22:17:43.711Z,15.90
2023-05-07T22:20:11.691Z,15.80
2023-05-07T22:22:55.298Z,15.70
2023-05-07T22:25:24.066Z,15.60
2023-05-07T22:27:51.737Z,15.80
2023-05-07T22:30:19.087Z,15.80
2023-05-07T22:32:46.186Z,15.70
2023-05-07T22:35:13.455Z,15.70
2023-05-07T22:37:40.303Z,15.60
2023-05-07T22:40:07.852Z,15.50
2023-05-07T22:42:34.912Z,15.40
2023-05-07T22:45:02.052Z,15.40
2023-05-07T22:47:31.264Z,15.40
2023-05-07T22:49:58.286Z,15.40
2023-05-07T22:52:25.420Z,15.40
2023-05-07T22:54:52.475Z,15.40
2023-05-07T22:57:19.500Z,15.40
2023-05-07T22:59:46.504Z,15.50
2023-05-07T23:02:13.523Z,15.60
2023-05-07T23:04:40.644Z,15.70
2023-05-07T23:07:07.909Z,15.60
2023-05-07T23:09:34.851Z,15.60
2023-05-07T23:12:01.919Z,15.70
2023-05-07T23:14:28.950Z,15.70
2023-05-07T23:16:56.098Z,15.80
2023-05-07T23:19:23.243Z,15.70
2023-05-07T23:21:50.353Z,15.70
2023-05-07T23:24:17.367Z,15.60
2023-05-07T23:26:44.289Z,15.50
2023-05-07T23:29:11.308Z,15.40
2023-05-07T23:31:38.217Z,15.30
2023-05-07T23:34:05.326Z,15.40
2023-05-07T23:36:32.822Z,15.30
2023-05-07T23:38:59.804Z,15.30
2023-05-07T23:41:27.173Z,15.40
2023-05-07T23:43:54.139Z,15.50
2023-05-07T23:46:21.433Z,15.50
2023-05-07T23:48:48.408Z,15.40
2023-05-07T23:51:15.404Z,15.30
2023-05-07T23:53:42.385Z,15.20
2023-05-07T23:56:09.327Z,15.20
2023-05-07T23:58:36.332Z,15.20
